createdAt,value
2023-05-13T00:01:29.889Z,10.98
2023-05-13T00:03:57.385Z,8.30
2023-05-13T00:06:24.876Z,7.72
2023-05-13T00:08:52.285Z,8.93
2023-05-13T00:11:19.648Z,12.82
2023-05-13T00:13:46.919Z,8.48
2023-05-13T00:16:14.457Z,8.27
2023-05-13T00:18:41.844Z,8.55
2023-05-13T00:21:09.574Z,8.50
2023-05-13T00:23:36.959Z,7.75
2023-05-13T00:26:04.405Z,9.38
2023-05-13T00:28:31.711Z,8.18
2023-05-13T00:30:59.325Z,11.40
2023-05-13T00:33:26.696Z,8.15
2023-05-13T00:35:54.262Z,9.40
2023-05-13T00:38:22.282Z,7.47
2023-05-13T00:40:50.760Z,8.45
2023-05-13T00:43:18.035Z,7.35
2023-05-13T00:45:45.974Z,7.90
2023-05-13T00:48:13.595Z,7.07
2023-05-13T00:50:44.721Z,6.60
2023-05-13T00:53:13.346Z,11.95
2023-05-13T00:55:43.238Z,8.73
2023-05-13T00:58:11.655Z,10.02
2023-05-13T01:00:52.334Z,8.63
2023-05-13T01:03:26.615Z,9.60
2023-05-13T01:06:08.322Z,11.40
2023-05-13T01:08:47.019Z,12.48
2023-05-13T01:11:22.212Z,8.40
2023-05-13T01:13:57.232Z,11.07
2023-05-13T01:16:32.165Z,7.50
2023-05-13T01:19:05.557Z,8.32
2023-05-13T01:21:37.327Z,9.65
2023-05-13T01:24:05.178Z,10.27
2023-05-13T01:26:32.764Z,10.10
2023-05-13T01:29:00.851Z,10.00
2023-05-13T01:31:29.417Z,8.88
2023-05-13T01:33:57.443Z,9.35
2023-05-13T01:36:26.285Z,9.77
2023-05-13T01:38:56.171Z,7.82
2023-05-13T01:41:23.753Z,9.73
2023-05-13T01:43:51.483Z,10.55
2023-05-13T01:46:19.107Z,9.00
2023-05-13T01:48:48.204Z,10.63
2023-05-13T01:51:15.970Z,10.60
2023-05-13T01:53:44.378Z,8.65
2023-05-13T01:56:11.892Z,12.02
2023-05-13T01:58:39.440Z,10.13
2023-05-13T02:01:06.818Z,8.73
2023-05-13T02:03:35.103Z,10.10
2023-05-13T02:06:03.333Z,8.85
2023-05-13T02:08:31.147Z,7.80
2023-05-13T02:11:00.392Z,6.32
2023-05-13T02:13:29.418Z,7.22
2023-05-13T02:15:56.927Z,7.70
2023-05-13T02:18:24.696Z,6.70
2023-05-13T02:20:52.372Z,8.35
2023-05-13T02:23:19.871Z,6.55
2023-05-13T02:25:47.174Z,9.35
2023-05-13T02:28:14.702Z,10.98
2023-05-13T02:30:42.250Z,8.98
2023-05-13T02:33:09.770Z,8.38
2023-05-13T02:35:37.285Z,9.00
2023-05-13T02:38:05.583Z,7.18
2023-05-13T02:40:34.671Z,8.38
2023-05-13T02:43:02.222Z,9.15
2023-05-13T02:45:42.667Z,7.38
2023-05-13T02:48:11.778Z,9.35
2023-05-13T02:50:40.838Z,7.82
2023-05-13T02:53:09.723Z,9.48
2023-05-13T02:55:41.214Z,9.05
2023-05-13T02:58:09.873Z,13.52
2023-05-13T03:00:37.203Z,10.40
2023-05-13T03:03:04.820Z,12.40
2023-05-13T03:05:32.233Z,8.68
2023-05-13T03:07:59.768Z,8.85
2023-05-13T03:10:27.164Z,10.93
2023-05-13T03:12:54.607Z,8.90
2023-05-13T03:15:23.134Z,8.90
2023-05-13T03:17:50.869Z,9.43
2023-05-13T03:20:19.893Z,11.27
2023-05-13T03:22:47.737Z,12.93
2023-05-13T03:25:16.011Z,6.88
2023-05-13T03:27:48.772Z,9.77
2023-05-13T03:30:18.560Z,8.35
2023-05-13T03:32:52.983Z,8.15
2023-05-13T03:35:20.621Z,8.93
2023-05-13T03:37:48.073Z,10.57
2023-05-13T03:40:16.969Z,8.65
2023-05-13T03:42:44.499Z,9.10
2023-05-13T03:45:13.140Z,7.53
2023-05-13T03:47:42.386Z,9.73
2023-05-13T03:50:14.902Z,7.03
2023-05-13T03:52:46.970Z,10.63
2023-05-13T03:55:16.600Z,7.50
2023-05-13T03:57:47.851Z,8.68
2023-05-13T04:00:17.625Z,7.68
2023-05-13T04:02:45.078Z,9.73
2023-05-13T04:05:14.271Z,8.07
2023-05-13T04:07:42.294Z,8.23
2023-05-13T04:10:13.060Z,12.35
2023-05-13T04:12:42.138Z,8.57
2023-05-13T04:15:09.883Z,8.13
2023-05-13T04:17:37.340Z,11.48
2023-05-13T04:20:05.108Z,9.65
2023-05-13T04:22:32.674Z,11.52
2023-05-13T04:24:59.977Z,7.80
2023-05-13T04:27:27.673Z,11.68
2023-05-13T04:30:02.176Z,9.30
2023-05-13T04:32:32.487Z,9.00
2023-05-13T04:35:00.005Z,8.35
2023-05-13T04:37:29.429Z,8.93
2023-05-13T04:39:59.714Z,9.90
2023-05-13T04:42:28.723Z,7.90
2023-05-13T04:44:56.201Z,8.75
2023-05-13T04:47:23.817Z,9.27
2023-05-13T04:49:51.239Z,10.68
2023-05-13T04:52:19.906Z,11.10
2023-05-13T04:54:47.208Z,9.05
2023-05-13T04:57:14.590Z,7.10
2023-05-13T04:59:42.011Z,9.90
2023-05-13T05:02:10.808Z,7.30
2023-05-13T05:04:38.721Z,8.05
2023-05-13T05:07:11.944Z,7.53
2023-05-13T05:09:39.492Z,7.90
2023-05-13T05:12:07.335Z,10.48
2023-05-13T05:14:38.508Z,8.65
2023-05-13T05:17:07.831Z,6.65
2023-05-13T05:19:35.457Z,9.00
2023-05-13T05:22:03.694Z,7.65
2023-05-13T05:24:31.484Z,7.43
2023-05-13T05:26:58.899Z,6.78
2023-05-13T05:29:26.693Z,11.70
2023-05-13T05:31:55.057Z,9.55
2023-05-13T05:34:22.464Z,7.85
2023-05-13T05:36:49.975Z,9.10
2023-05-13T05:39:17.989Z,6.97
2023-05-13T05:41:47.542Z,9.05
2023-05-13T05:44:15.021Z,7.78
2023-05-13T05:46:42.610Z,7.95
2023-05-13T05:49:09.901Z,9.90
2023-05-13T05:51:37.893Z,9.13
2023-05-13T05:54:06.965Z,9.15
2023-05-13T05:56:35.183Z,8.70
2023-05-13T05:59:02.582Z,9.55
2023-05-13T06:01:32.259Z,8.75
2023-05-13T06:03:59.780Z,8.15
2023-05-13T06:06:27.456Z,9.75
2023-05-13T06:08:54.796Z,9.77
2023-05-13T06:11:22.953Z,7.40
2023-05-13T06:13:51.504Z,9.43
2023-05-13T06:16:19.002Z,7.50
2023-05-13T06:18:46.365Z,9.07
2023-05-13T06:21:14.405Z,9.50
2023-05-13T06:23:42.482Z,8.82
2023-05-13T06:26:09.881Z,8.82
2023-05-13T06:28:37.321Z,8.80
2023-05-13T06:31:04.719Z,8.07
2023-05-13T06:33:32.076Z,10.38
2023-05-13T06:35:59.624Z,12.85
2023-05-13T06:38:27.775Z,9.32
2023-05-13T06:40:57.939Z,9.57
2023-05-13T06:43:30.687Z,11.55
2023-05-13T06:46:00.163Z,12.00
2023-05-13T06:48:28.799Z,12.55
2023-05-13T06:50:56.386Z,13.10
2023-05-13T06:53:23.632Z,7.32
2023-05-13T06:55:51.168Z,7.20
2023-05-13T06:58:18.572Z,8.18
2023-05-13T07:00:47.329Z,9.63
2023-05-13T07:03:14.821Z,10.77
2023-05-13T07:05:42.511Z,9.60
2023-05-13T07:08:09.890Z,12.02
2023-05-13T07:10:37.437Z,9.40
2023-05-13T07:13:05.268Z,8.48
2023-05-13T07:15:32.680Z,11.40
2023-05-13T07:17:59.984Z,9.07
2023-05-13T07:20:27.557Z,9.35
2023-05-13T07:22:54.916Z,7.75
2023-05-13T07:25:22.355Z,10.43
2023-05-13T07:27:49.846Z,9.13
2023-05-13T07:30:17.417Z,9.45
2023-05-13T07:32:44.810Z,10.80
2023-05-13T07:35:12.413Z,8.23
2023-05-13T07:37:39.810Z,10.45
2023-05-13T07:40:08.135Z,10.75
2023-05-13T07:42:35.839Z,10.57
2023-05-13T07:45:04.297Z,10.70
2023-05-13T07:47:32.069Z,10.05
2023-05-13T07:49:59.918Z,11.98
2023-05-13T07:52:27.700Z,10.25
2023-05-13T07:54:55.501Z,9.90
2023-05-13T07:57:22.882Z,11.52
2023-05-13T07:59:50.320Z,11.05
2023-05-13T08:02:17.663Z,10.38
2023-05-13T08:04:45.123Z,9.48
2023-05-13T08:07:12.390Z,8.20
2023-05-13T08:09:39.872Z,10.80
2023-05-13T08:12:07.529Z,10.77
2023-05-13T08:14:35.053Z,10.23
2023-05-13T08:17:02.298Z,12.32
2023-05-13T08:19:29.702Z,11.85
2023-05-13T08:21:57.023Z,12.27
2023-05-13T08:24:24.401Z,10.57
2023-05-13T08:26:51.890Z,9.35
2023-05-13T08:29:19.330Z,12.70
2023-05-13T08:31:46.718Z,10.35
2023-05-13T08:34:14.184Z,8.88
2023-05-13T08:36:41.460Z,13.50
2023-05-13T08:39:08.859Z,12.20
2023-05-13T08:41:37.920Z,15.68
2023-05-13T08:44:07.151Z,12.15
2023-05-13T08:46:37.537Z,11.68
2023-05-13T08:49:05.689Z,9.88
2023-05-13T08:51:33.050Z,9.30
2023-05-13T08:54:01.520Z,14.40
2023-05-13T08:56:30.024Z,10.13
2023-05-13T08:58:57.459Z,10.57
2023-05-13T09:01:26.967Z,10.35
2023-05-13T09:04:00.426Z,10.60
2023-05-13T09:06:28.820Z,12.68
2023-05-13T09:08:56.553Z,10.00
2023-05-13T09:11:24.081Z,9.02
2023-05-13T09:14:07.458Z,11.15
2023-05-13T09:16:36.687Z,10.75
2023-05-13T09:19:07.585Z,10.05
2023-05-13T09:21:36.312Z,8.85
2023-05-13T09:24:08.911Z,8.32
2023-05-13T09:26:40.661Z,10.90
2023-05-13T09:29:11.010Z,9.35
2023-05-13T09:31:38.416Z,9.52
2023-05-13T09:34:05.779Z,8.25
2023-05-13T09:36:33.818Z,8.05
2023-05-13T09:39:02.002Z,10.35
2023-05-13T09:41:31.667Z,9.13
2023-05-13T09:44:02.067Z,12.27
2023-05-13T09:46:31.624Z,8.13
2023-05-13T09:48:59.111Z,11.02
2023-05-13T09:51:27.907Z,10.85
2023-05-13T09:53:55.496Z,9.82
2023-05-13T09:56:24.681Z,8.43
2023-05-13T09:58:53.307Z,8.18
2023-05-13T10:01:22.522Z,7.45
2023-05-13T10:03:50.270Z,7.72
2023-05-13T10:06:18.769Z,9.05
2023-05-13T10:08:49.674Z,9.10
2023-05-13T10:11:18.755Z,10.30
2023-05-13T10:13:51.816Z,8.15
2023-05-13T10:16:19.375Z,8.43
2023-05-13T10:18:47.971Z,8.65
2023-05-13T10:21:16.251Z,7.90
2023-05-13T10:23:45.057Z,9.02
2023-05-13T10:26:13.090Z,11.98
2023-05-13T10:28:42.547Z,8.35
2023-05-13T10:31:09.876Z,8.07
2023-05-13T10:33:37.161Z,6.53
2023-05-13T10:36:12.922Z,10.02
2023-05-13T10:38:55.903Z,8.20
2023-05-13T10:41:32.967Z,10.10
2023-05-13T10:44:00.357Z,7.57
2023-05-13T10:46:27.666Z,12.02
2023-05-13T10:49:00.945Z,7.43
2023-05-13T10:51:28.376Z,7.93
2023-05-13T10:53:59.098Z,8.23
2023-05-13T10:56:28.852Z,10.05
2023-05-13T10:58:59.436Z,8.13
2023-05-13T11:01:29.975Z,7.90
2023-05-13T11:04:00.247Z,9.70
2023-05-13T11:06:30.580Z,9.20
2023-05-13T11:08:57.870Z,8.93
2023-05-13T11:11:29.663Z,8.73
2023-05-13T11:14:08.907Z,6.95
2023-05-13T11:16:37.597Z,8.43
2023-05-13T11:19:09.624Z,6.72
2023-05-13T11:21:39.819Z,6.47
2023-05-13T11:24:08.229Z,6.80
2023-05-13T11:26:38.834Z,7.63
2023-05-13T11:29:06.776Z,6.80
2023-05-13T11:31:50.429Z,9.48
2023-05-13T11:34:19.628Z,7.28
2023-05-13T11:36:51.075Z,7.55
2023-05-13T11:39:20.549Z,7.72
2023-05-13T11:41:50.166Z,8.25
2023-05-13T11:44:20.613Z,7.32
2023-05-13T11:46:50.089Z,6.68
2023-05-13T11:49:20.384Z,7.22
2023-05-13T11:51:47.556Z,7.00
2023-05-13T11:54:14.773Z,7.72
2023-05-13T11:56:44.035Z,6.32
2023-05-13T11:59:14.895Z,7.80
2023-05-13T12:01:42.576Z,6.70
2023-05-13T12:04:09.827Z,6.68
2023-05-13T12:06:46.277Z,8.15
2023-05-13T12:09:13.569Z,6.90
2023-05-13T12:11:41.231Z,8.10
2023-05-13T12:14:09.243Z,7.85
2023-05-13T12:16:36.616Z,7.22
2023-05-13T12:19:06.556Z,7.80
2023-05-13T12:21:35.042Z,8.25
2023-05-13T12:24:02.496Z,7.97
2023-05-13T12:26:29.719Z,6.65
2023-05-13T12:28:59.203Z,9.70
2023-05-13T12:31:26.627Z,6.82
2023-05-13T12:33:53.915Z,8.70
2023-05-13T12:36:27.989Z,6.70
2023-05-13T12:39:00.272Z,7.75
2023-05-13T12:41:31.180Z,7.45
2023-05-13T12:44:00.370Z,7.13
2023-05-13T12:46:28.157Z,7.25
2023-05-13T12:48:57.152Z,5.43
2023-05-13T12:51:24.448Z,7.13
2023-05-13T12:53:54.246Z,9.90
2023-05-13T12:56:23.348Z,7.18
2023-05-13T12:58:51.865Z,6.03
2023-05-13T13:01:19.803Z,6.30
2023-05-13T13:03:47.193Z,6.40
2023-05-13T13:06:15.113Z,7.05
2023-05-13T13:08:42.480Z,5.65
2023-05-13T13:11:09.969Z,6.80
2023-05-13T13:13:39.240Z,6.60
2023-05-13T13:16:07.404Z,6.65
2023-05-13T13:18:35.299Z,6.20
2023-05-13T13:21:02.724Z,7.10
2023-05-13T13:23:29.995Z,9.05
2023-05-13T13:25:59.375Z,5.93
2023-05-13T13:28:27.650Z,5.72
2023-05-13T13:30:55.266Z,5.07
2023-05-13T13:33:22.576Z,5.88
2023-05-13T13:35:49.971Z,5.28
2023-05-13T13:38:17.207Z,6.00
2023-05-13T13:40:44.454Z,5.70
2023-05-13T13:43:11.727Z,6.90
2023-05-13T13:45:39.573Z,5.07
2023-05-13T13:48:07.099Z,5.40
2023-05-13T13:50:34.269Z,5.32
2023-05-13T13:53:01.404Z,3.42
2023-05-13T13:55:28.551Z,4.28
2023-05-13T13:57:55.745Z,5.30
2023-05-13T14:00:23.078Z,4.35
2023-05-13T14:02:50.701Z,4.20
2023-05-13T14:05:17.999Z,3.00
2023-05-13T14:07:54.192Z,4.45
2023-05-13T14:10:21.848Z,4.03
2023-05-13T14:12:49.187Z,3.95
2023-05-13T14:15:16.524Z,3.53
2023-05-13T14:17:44.016Z,4.07
2023-05-13T14:20:12.244Z,3.00
2023-05-13T14:22:39.484Z,3.85
2023-05-13T14:25:06.974Z,5.95
2023-05-13T14:27:36.423Z,4.78
2023-05-13T14:30:04.868Z,4.88
2023-05-13T14:32:32.060Z,3.13
2023-05-13T14:34:59.736Z,3.55
2023-05-13T14:37:27.054Z,3.33
2023-05-13T14:39:54.303Z,2.97
2023-05-13T14:42:21.857Z,4.78
2023-05-13T14:44:49.072Z,3.20
2023-05-13T14:47:16.238Z,4.22
2023-05-13T14:49:43.816Z,4.78
2023-05-13T14:52:10.963Z,5.15
2023-05-13T14:54:38.437Z,3.72
2023-05-13T14:57:07.254Z,3.90
2023-05-13T14:59:34.615Z,3.42
2023-05-13T15:02:03.537Z,3.35
2023-05-13T15:04:31.054Z,3.65
2023-05-13T15:06:58.489Z,5.32
2023-05-13T15:09:25.936Z,3.60
2023-05-13T15:11:53.204Z,3.80
2023-05-13T15:14:26.016Z,6.38
2023-05-13T15:16:53.551Z,5.28
2023-05-13T15:19:20.902Z,5.43
2023-05-13T15:21:48.181Z,3.40
2023-05-13T15:24:15.323Z,3.95
2023-05-13T15:26:43.300Z,4.95
2023-05-13T15:29:10.515Z,5.28
2023-05-13T15:31:37.694Z,5.63
2023-05-13T15:34:04.870Z,5.03
2023-05-13T15:36:34.392Z,4.60
2023-05-13T15:39:02.674Z,6.32
2023-05-13T15:41:30.035Z,4.75
2023-05-13T15:43:57.149Z,4.60
2023-05-13T15:46:25.302Z,4.30
2023-05-13T15:48:52.543Z,4.38
2023-05-13T15:51:20.702Z,4.97
2023-05-13T15:53:47.813Z,4.85
2023-05-13T15:56:15.078Z,4.47
2023-05-13T15:58:42.275Z,4.13
2023-05-13T16:01:09.480Z,4.28
2023-05-13T16:03:38.705Z,3.70
2023-05-13T16:06:06.317Z,2.78
2023-05-13T16:08:33.430Z,3.30
2023-05-13T16:11:00.843Z,3.70
2023-05-13T16:13:27.953Z,5.80
2023-05-13T16:15:55.818Z,4.90
2023-05-13T16:18:23.177Z,4.15
2023-05-13T16:20:50.905Z,3.83
2023-05-13T16:23:18.049Z,3.78
2023-05-13T16:25:45.594Z,4.07
2023-05-13T16:28:12.730Z,4.15
2023-05-13T16:30:40.119Z,3.60
2023-05-13T16:33:09.583Z,3.75
2023-05-13T16:35:37.143Z,4.28
2023-05-13T16:38:04.272Z,4.07
2023-05-13T16:40:31.545Z,4.65
2023-05-13T16:43:02.533Z,4.97
2023-05-13T16:45:31.304Z,3.90
2023-05-13T16:47:58.590Z,4.72
2023-05-13T16:50:26.301Z,4.05
2023-05-13T16:52:54.611Z,4.72
2023-05-13T16:55:22.694Z,3.50
2023-05-13T16:57:49.883Z,3.63
2023-05-13T17:00:17.394Z,3.65
2023-05-13T17:02:44.665Z,5.30
2023-05-13T17:05:12.095Z,4.50
2023-05-13T17:07:39.752Z,4.13
2023-05-13T17:10:07.585Z,3.25
2023-05-13T17:12:34.763Z,3.60
2023-05-13T17:15:01.986Z,4.68
2023-05-13T17:17:29.198Z,3.63
2023-05-13T17:19:57.703Z,3.60
2023-05-13T17:22:24.843Z,3.35
2023-05-13T17:24:52.088Z,4.25
2023-05-13T17:27:19.174Z,3.70
2023-05-13T17:29:46.412Z,3.70
2023-05-13T17:32:13.573Z,3.55
2023-05-13T17:34:40.867Z,4.22
2023-05-13T17:37:08.115Z,4.53
2023-05-13T17:39:35.324Z,3.33
2023-05-13T17:42:02.484Z,2.83
2023-05-13T17:44:29.765Z,4.20
2023-05-13T17:46:57.056Z,4.55
2023-05-13T17:49:24.273Z,4.38
2023-05-13T17:51:51.447Z,4.63
2023-05-13T17:54:18.610Z,4.40
2023-05-13T17:56:45.734Z,5.00
2023-05-13T17:59:12.872Z,6.20
2023-05-13T18:01:40.003Z,6.18
2023-05-13T18:04:07.245Z,4.63
2023-05-13T18:06:34.358Z,5.00
2023-05-13T18:09:02.681Z,5.25
2023-05-13T18:11:30.668Z,5.10
2023-05-13T18:13:57.886Z,5.40
2023-05-13T18:16:25.135Z,4.93
2023-05-13T18:18:52.592Z,5.15
2023-05-13T18:21:19.811Z,5.97
2023-05-13T18:23:47.062Z,5.75
2023-05-13T18:26:14.308Z,4.75
2023-05-13T18:28:45.081Z,4.95
2023-05-13T18:31:12.383Z,5.07
2023-05-13T18:33:39.574Z,5.35
2023-05-13T18:36:08.733Z,5.97
2023-05-13T18:38:37.031Z,4.97
2023-05-13T18:41:05.030Z,5.05
2023-05-13T18:43:32.185Z,4.70
2023-05-13T18:45:59.601Z,5.80
2023-05-13T18:48:26.915Z,5.85
2023-05-13T18:50:54.124Z,7.28
2023-05-13T18:53:21.345Z,7.35
2023-05-13T18:55:48.620Z,6.35
2023-05-13T18:58:15.779Z,10.32
2023-05-13T19:00:43.007Z,6.50
2023-05-13T19:03:10.435Z,6.38
2023-05-13T19:05:37.905Z,6.70
2023-05-13T19:08:06.222Z,8.75
2023-05-13T19:10:39.361Z,6.00
2023-05-13T19:13:07.610Z,6.55
2023-05-13T19:15:35.013Z,6.90
2023-05-13T19:18:02.331Z,5.72
2023-05-13T19:20:30.257Z,7.22
2023-05-13T19:22:57.611Z,7.55
2023-05-13T19:25:24.814Z,6.72
2023-05-13T19:27:52.077Z,6.95
2023-05-13T19:30:19.301Z,6.75
2023-05-13T19:32:46.483Z,5.50
2023-05-13T19:35:13.761Z,5.85
2023-05-13T19:37:40.898Z,6.25
2023-05-13T19:40:08.922Z,5.55
2023-05-13T19:42:36.277Z,6.93
2023-05-13T19:45:06.506Z,5.90
2023-05-13T19:47:34.755Z,5.45
2023-05-13T19:50:02.392Z,7.22
2023-05-13T19:52:29.590Z,5.45
2023-05-13T19:54:56.771Z,6.10
2023-05-13T19:57:23.963Z,6.88
2023-05-13T19:59:51.941Z,5.10
2023-05-13T20:02:19.265Z,6.35
2023-05-13T20:04:46.566Z,6.93
2023-05-13T20:07:13.694Z,6.00
2023-05-13T20:09:41.060Z,6.25
2023-05-13T20:12:08.362Z,8.02
2023-05-13T20:14:38.643Z,8.20
2023-05-13T20:17:05.827Z,6.25
2023-05-13T20:19:33.146Z,5.88
2023-05-13T20:22:00.870Z,8.13
2023-05-13T20:24:28.074Z,5.40
2023-05-13T20:26:55.605Z,7.97
2023-05-13T20:29:23.386Z,6.53
2023-05-13T20:31:50.500Z,8.05
2023-05-13T20:34:17.805Z,7.07
2023-05-13T20:36:44.906Z,5.28
2023-05-13T20:39:12.168Z,6.43
2023-05-13T20:41:39.389Z,6.35
2023-05-13T20:44:07.116Z,5.53
2023-05-13T20:46:34.246Z,5.20
2023-05-13T20:49:01.459Z,8.35
2023-05-13T20:51:28.579Z,5.22
2023-05-13T20:53:55.918Z,4.60
2023-05-13T20:56:23.031Z,5.72
2023-05-13T20:58:51.646Z,4.00
2023-05-13T21:01:18.920Z,4.30
2023-05-13T21:03:47.134Z,5.63
2023-05-13T21:06:16.097Z,5.15
2023-05-13T21:08:44.345Z,5.22
2023-05-13T21:11:11.450Z,4.78
2023-05-13T21:13:38.706Z,9.50
2023-05-13T21:16:06.313Z,5.25
2023-05-13T21:18:34.140Z,5.80
2023-05-13T21:21:01.615Z,5.55
2023-05-13T21:23:29.089Z,4.88
2023-05-13T21:25:56.211Z,5.32
2023-05-13T21:28:23.456Z,6.28
2023-05-13T21:30:50.559Z,6.63
2023-05-13T21:33:17.688Z,6.95
2023-05-13T21:35:44.824Z,6.22
2023-05-13T21:38:12.649Z,6.30
2023-05-13T21:40:40.565Z,9.07
2023-05-13T21:43:07.829Z,6.43
2023-05-13T21:45:35.124Z,6.95
2023-05-13T21:48:02.363Z,7.85
2023-05-13T21:50:29.730Z,6.45
2023-05-13T21:52:57.014Z,11.57
2023-05-13T21:55:24.920Z,8.02
2023-05-13T21:57:52.108Z,8.65
2023-05-13T22:00:19.499Z,6.82
2023-05-13T22:02:47.023Z,9.68
2023-05-13T22:05:14.558Z,6.85
2023-05-13T22:07:41.790Z,7.88
2023-05-13T22:10:09.792Z,8.65
2023-05-13T22:12:37.007Z,7.65
2023-05-13T22:15:04.499Z,8.60
2023-05-13T22:17:31.778Z,9.23
2023-05-13T22:19:59.078Z,7.65
2023-05-13T22:22:26.377Z,6.60
2023-05-13T22:24:53.635Z,6.88
2023-05-13T22:27:21.453Z,7.70
2023-05-13T22:29:48.619Z,6.90
2023-05-13T22:32:15.922Z,8.15
2023-05-13T22:34:43.176Z,5.90
2023-05-13T22:37:10.853Z,6.47
2023-05-13T22:39:38.053Z,10.48
2023-05-13T22:42:05.396Z,6.53
2023-05-13T22:44:32.612Z,7.30
2023-05-13T22:46:59.861Z,8.40
2023-05-13T22:49:27.017Z,7.63
2023-05-13T22:51:54.286Z,8.43
2023-05-13T22:54:21.412Z,8.40
2023-05-13T22:56:48.590Z,6.90
2023-05-13T22:59:15.908Z,7.47
2023-05-13T23:01:43.142Z,7.28
2023-05-13T23:04:10.334Z,6.07
2023-05-13T23:06:37.649Z,7.28
2023-05-13T23:09:05.671Z,7.47
2023-05-13T23:11:33.020Z,7.03
2023-05-13T23:14:00.260Z,7.30
2023-05-13T23:16:27.639Z,6.47
2023-05-13T23:18:55.979Z,6.72
2023-05-13T23:21:23.475Z,7.03
2023-05-13T23:23:52.078Z,7.70
2023-05-13T23:26:19.556Z,9.00
2023-05-13T23:28:46.831Z,8.93
2023-05-13T23:31:14.136Z,7.10
2023-05-13T23:33:41.425Z,6.95
2023-05-13T23:36:08.898Z,11.05
2023-05-13T23:38:35.994Z,6.47
2023-05-13T23:41:03.622Z,8.27
2023-05-13T23:43:30.815Z,9.02
2023-05-13T23:45:58.166Z,7.15
2023-05-13T23:48:28.344Z,6.72
2023-05-13T23:50:55.705Z,9.05
2023-05-13T23:53:22.840Z,14.80
2023-05-13T23:55:50.113Z,9.18
2023-05-13T23:58:17.494Z,8.18
